Airfield :
LOGIN :

Register | Disclaimer

   EN    FR    IT 

 










Legend :    VFR   Marginal VFR   IFR   Intensive IFR   Very Intensive IFR
Visi :
Ceiling :
>= 8 km
>= 3000ft
5 to 8 km
1000 to 3000 ft
1500m to 5 km
500 to 1000 ft
800 to 1500m
200 to 500 ft
< 800m
< 200 ft
Symbols :   Thunderstorms  Fog  Heavy snow  Heavy precipitations  Wind > 20 kt
SIGMETs :     Misc.  Thunderstorms  Icing  Turbulence  Mountain Waves  Volcanic Ashes






- Airport Elevation : 53 ft
- IATA code : HAM


EDDH - Hamburg

CURRENT METAR :
  • 270920Z 11008KT 070V140 9999 -DZ SCT007 BKN010 03/02 Q0989 TEMPO BKN007

EXPIRED METARs :
  • 270850Z 10007KT 9000 -DZ FEW006 BKN008 03/02 Q0989 TEMPO BKN011
  • 270820Z 10008KT 8000 -RADZ FEW006 BKN008 03/02 Q0989 TEMPO BKN011
  • 270750Z 10008KT 8000 -DZ FEW006 BKN008 03/02 Q0989 TEMPO BKN011
  • 270720Z 10008KT 9999 BKN007 BKN027 02/02 Q0988 TEMPO BKN011
  • 270650Z 10008KT 070V130 9999 BKN006 BKN023 02/02 Q0988 TEMPO BKN011
  • 270620Z 10008KT 080V140 9999 -RA BKN006 02/02 Q0988 TEMPO BKN011

TAF TAF EDDH
Valid from the 27 at 06:00 until the 28 at 12:00 UTC


270500Z 2706/2812 11010KT 9999 BKN013
BECMG 2706/2708 BKN007
PROB30
TEMPO 2706/2714 4000 -RA BKN004
BECMG 2710/2712 10005KT
BECMG 2712/2715 BKN015
TEMPO 2715/2720 BKN007
BECMG 2720/2723 VRB03KT BKN007
TEMPO 2720/2810 3000 -RADZ BKN004
BECMG 2805/2807 25005KT



MET'MAP, your aeronautical weather chart ! - Copyright ORBIFLY December 2007 - Disclaimer

ORBIFLY MET'MAP TEAM :

Programming & Development : Alexandra Zaïnal
Concept & original design : Baudouin d'Aumeries
Assistance for programming : Marc-Olivier Méhu
Technical & hardware support : Manuel Goepfert

Contact : metmap@orbifly.com




SOURCES & CREDITS :

   NOAA